createdAt,value
2023-04-05T00:00:54.110Z,72.95
2023-04-05T00:03:24.336Z,73.45
2023-04-05T00:05:54.759Z,72.99
2023-04-05T00:08:26.965Z,72.84
2023-04-05T00:10:54.898Z,72.86
2023-04-05T00:13:22.882Z,73.28
2023-04-05T00:15:50.928Z,73.33
2023-04-05T00:18:23.829Z,73.57
2023-04-05T00:20:53.300Z,73.38
2023-04-05T00:23:22.817Z,73.02
2023-04-05T00:25:50.388Z,73.13
2023-04-05T00:28:17.954Z,73.35
2023-04-05T00:30:45.589Z,72.59
2023-04-05T00:33:13.664Z,72.44
2023-04-05T00:35:41.296Z,72.11
2023-04-05T00:38:10.337Z,72.23
2023-04-05T00:40:38.017Z,71.83
2023-04-05T00:43:05.611Z,71.13
2023-04-05T00:45:33.758Z,70.63
2023-04-05T00:48:01.621Z,71.78
2023-04-05T00:50:30.864Z,71.26
2023-04-05T00:52:58.640Z,72.08
2023-04-05T00:55:27.826Z,73.00
2023-04-05T00:57:56.252Z,71.96
2023-04-05T01:00:24.515Z,71.61
2023-04-05T01:02:53.884Z,71.30
2023-04-05T01:05:30.158Z,71.63
2023-04-05T01:08:01.207Z,71.65
2023-04-05T01:10:36.999Z,72.18
2023-04-05T01:13:04.949Z,72.31
2023-04-05T01:15:32.826Z,72.65
2023-04-05T01:18:02.083Z,72.73
2023-04-05T01:20:35.002Z,72.70
2023-04-05T01:23:27.668Z,72.62
2023-04-05T01:26:39.955Z,72.77
2023-04-05T01:29:37.966Z,72.25
2023-04-05T01:32:11.663Z,72.49
2023-04-05T01:34:47.131Z,73.03
2023-04-05T01:37:17.233Z,72.78
2023-04-05T01:39:47.385Z,73.37
2023-04-05T01:42:15.033Z,73.35
2023-04-05T01:44:44.193Z,73.14
2023-04-05T01:47:11.754Z,73.58
2023-04-05T01:49:39.358Z,74.00
2023-04-05T01:52:06.934Z,74.04
2023-04-05T01:54:34.488Z,74.59
2023-04-05T01:57:02.128Z,74.50
2023-04-05T01:59:29.766Z,74.71
2023-04-05T02:01:59.003Z,74.35
2023-04-05T02:04:26.745Z,74.31
2023-04-05T02:06:54.366Z,74.77
2023-04-05T02:09:21.937Z,75.35
2023-04-05T02:11:49.549Z,75.28
2023-04-05T02:14:17.100Z,75.95
2023-04-05T02:16:44.761Z,75.96
2023-04-05T02:19:15.865Z,75.67
2023-04-05T02:21:43.572Z,75.56
2023-04-05T02:24:11.140Z,75.03
2023-04-05T02:26:38.736Z,75.66
2023-04-05T02:29:06.382Z,75.88
2023-04-05T02:31:34.149Z,75.68
2023-04-05T02:34:01.872Z,75.96
2023-04-05T02:36:30.824Z,75.91
2023-04-05T02:38:58.424Z,75.90
2023-04-05T02:41:26.015Z,75.22
2023-04-05T02:43:53.565Z,75.76
2023-04-05T02:46:21.276Z,76.67
2023-04-05T02:48:48.887Z,76.69
2023-04-05T02:51:16.473Z,76.43
2023-04-05T02:53:45.537Z,76.24
2023-04-05T02:56:14.244Z,76.87
2023-04-05T02:58:42.395Z,77.37
2023-04-05T03:01:10.132Z,77.10
2023-04-05T03:03:40.207Z,77.32
2023-04-05T03:06:10.213Z,77.41
2023-04-05T03:08:38.805Z,78.35
2023-04-05T03:11:07.880Z,78.13
2023-04-05T03:13:35.974Z,78.20
2023-04-05T03:16:03.570Z,78.11
2023-04-05T03:18:31.177Z,78.06
2023-04-05T03:20:59.183Z,78.05
2023-04-05T03:23:29.686Z,77.69
2023-04-05T03:26:00.485Z,77.71
2023-04-05T03:28:32.177Z,77.35
2023-04-05T03:31:00.209Z,76.93
2023-04-05T03:33:27.871Z,77.14
2023-04-05T03:35:55.514Z,76.76
2023-04-05T03:38:23.162Z,76.73
2023-04-05T03:40:50.797Z,76.62
2023-04-05T03:43:18.312Z,77.32
2023-04-05T03:45:47.277Z,77.84
2023-04-05T03:48:19.909Z,78.27
2023-04-05T03:50:47.533Z,77.90
2023-04-05T03:53:19.030Z,78.27
2023-04-05T03:55:50.362Z,77.75
2023-04-05T03:58:18.145Z,77.52
2023-04-05T04:00:47.224Z,77.65
2023-04-05T04:03:15.112Z,77.74
2023-04-05T04:05:43.087Z,78.20
2023-04-05T04:08:11.355Z,78.21
2023-04-05T04:10:38.934Z,77.79
2023-04-05T04:15:34.090Z,77.33
2023-04-05T04:18:03.027Z,76.86
2023-04-05T04:20:30.861Z,77.67
2023-04-05T04:22:58.903Z,77.58
2023-04-05T04:25:30.743Z,77.21
2023-04-05T04:27:59.047Z,77.17
2023-04-05T04:30:26.945Z,77.76
2023-04-05T04:32:55.227Z,77.54
2023-04-05T04:35:25.849Z,77.55
2023-04-05T04:37:57.873Z,77.53
2023-04-05T04:40:26.716Z,78.07
2023-04-05T04:42:54.647Z,77.93
2023-04-05T04:45:22.300Z,77.63
2023-04-05T04:47:52.714Z,77.72
2023-04-05T04:50:22.073Z,76.80
2023-04-05T04:52:51.046Z,77.54
2023-04-05T04:55:18.608Z,77.46
2023-04-05T04:57:46.131Z,76.74
2023-04-05T05:00:15.719Z,77.33
2023-04-05T05:02:44.255Z,77.12
2023-04-05T05:05:12.513Z,76.64
2023-04-05T05:07:41.818Z,77.06
2023-04-05T05:10:12.419Z,76.86
2023-04-05T05:15:09.146Z,76.64
2023-04-05T05:17:37.473Z,76.73
2023-04-05T05:20:11.041Z,76.50
2023-04-05T05:22:39.429Z,76.99
2023-04-05T05:25:08.658Z,77.01
2023-04-05T05:27:37.573Z,77.23
2023-04-05T05:30:05.841Z,76.91
2023-04-05T05:32:33.485Z,76.48
2023-04-05T05:35:01.114Z,76.39
2023-04-05T05:37:31.211Z,76.59
2023-04-05T05:39:58.923Z,76.72
2023-04-05T05:42:27.093Z,76.25
2023-04-05T05:44:55.982Z,76.41
2023-04-05T05:47:23.661Z,76.74
2023-04-05T05:49:51.216Z,77.29
2023-04-05T05:52:18.870Z,77.62
2023-04-05T05:54:47.131Z,77.59
2023-04-05T05:57:14.740Z,77.38
2023-04-05T05:59:42.298Z,77.52
2023-04-05T06:02:11.974Z,76.46
2023-04-05T06:04:39.717Z,76.26
2023-04-05T06:07:07.373Z,77.16
2023-04-05T06:09:35.248Z,76.19
2023-04-05T06:12:02.914Z,77.04
2023-04-05T06:14:31.140Z,77.15
2023-04-05T06:16:58.729Z,76.27
2023-04-05T06:19:27.800Z,76.09
2023-04-05T06:21:56.016Z,75.67
2023-04-05T06:24:23.582Z,75.89
2023-04-05T06:26:51.956Z,74.88
2023-04-05T06:29:19.557Z,75.34
2023-04-05T06:31:48.356Z,75.60
2023-04-05T06:34:16.047Z,75.79
2023-04-05T06:36:45.043Z,75.15
2023-04-05T06:39:12.600Z,75.92
2023-04-05T06:41:40.227Z,74.94
2023-04-05T06:44:07.827Z,75.07
2023-04-05T06:46:35.376Z,74.46
2023-04-05T06:49:04.125Z,74.06
2023-04-05T06:51:31.999Z,73.63
2023-04-05T06:54:00.886Z,74.00
2023-04-05T06:56:28.574Z,73.76
2023-04-05T06:58:58.054Z,74.34
2023-04-05T07:01:26.306Z,73.41
2023-04-05T07:03:54.281Z,73.02
2023-04-05T07:06:23.838Z,73.35
2023-04-05T07:08:52.536Z,72.52
2023-04-05T07:11:21.958Z,72.08
2023-04-05T07:13:49.616Z,71.63
2023-04-05T07:16:19.200Z,72.67
2023-04-05T07:18:46.841Z,70.70
2023-04-05T07:21:14.558Z,71.21
2023-04-05T07:23:42.127Z,71.28
2023-04-05T07:26:09.751Z,68.74
2023-04-05T07:28:38.751Z,69.90
2023-04-05T07:31:07.573Z,69.95
2023-04-05T07:33:35.293Z,70.33
2023-04-05T07:36:03.460Z,70.29
2023-04-05T07:38:31.096Z,68.74
2023-04-05T07:40:58.705Z,70.01
2023-04-05T07:43:26.805Z,69.44
2023-04-05T07:46:02.313Z,68.60
2023-04-05T07:48:30.234Z,69.70
2023-04-05T07:50:58.399Z,68.60
2023-04-05T07:53:26.156Z,67.90
2023-04-05T07:55:53.956Z,67.44
2023-04-05T07:58:22.567Z,66.96
2023-04-05T08:00:50.449Z,66.79
2023-04-05T08:03:19.440Z,67.61
2023-04-05T08:05:47.082Z,65.17
2023-04-05T08:08:14.687Z,65.67
2023-04-05T08:10:42.581Z,64.79
2023-04-05T08:13:10.422Z,63.30
2023-04-05T08:15:38.055Z,63.42
2023-04-05T08:18:05.632Z,64.33
2023-04-05T08:20:39.262Z,63.37
2023-04-05T08:23:07.808Z,63.30
2023-04-05T08:25:35.426Z,62.94
2023-04-05T08:28:02.953Z,63.60
2023-04-05T08:30:30.662Z,63.33
2023-04-05T08:32:58.235Z,62.63
2023-04-05T08:35:25.969Z,62.94
2023-04-05T08:37:54.928Z,62.32
2023-04-05T08:40:22.521Z,61.58
2023-04-05T08:42:54.305Z,61.82
2023-04-05T08:45:21.904Z,61.94
2023-04-05T08:47:50.613Z,61.75
2023-04-05T08:50:18.202Z,59.28
2023-04-05T08:52:49.777Z,60.20
2023-04-05T08:55:18.819Z,59.66
2023-04-05T08:57:55.222Z,59.70
2023-04-05T09:00:23.074Z,59.58
2023-04-05T09:02:52.325Z,59.95
2023-04-05T09:05:21.065Z,57.91
2023-04-05T09:07:48.930Z,56.99
2023-04-05T09:10:20.444Z,57.85
2023-04-05T09:12:48.632Z,57.11
2023-04-05T09:15:17.714Z,58.45
2023-04-05T09:17:45.581Z,57.98
2023-04-05T09:20:13.291Z,57.38
2023-04-05T09:22:45.313Z,56.91
2023-04-05T09:25:13.027Z,55.84
2023-04-05T09:27:57.340Z,57.00
2023-04-05T09:30:25.884Z,55.63
2023-04-05T09:32:54.939Z,55.10
2023-04-05T09:35:24.083Z,53.75
2023-04-05T09:37:54.253Z,55.08
2023-04-05T09:40:22.409Z,54.50
2023-04-05T09:42:50.795Z,53.60
2023-04-05T09:45:19.919Z,53.64
2023-04-05T09:47:56.068Z,53.24
2023-04-05T09:50:23.799Z,54.04
2023-04-05T09:52:52.441Z,54.29
2023-04-05T09:55:29.783Z,53.04
2023-04-05T09:57:57.441Z,53.50
2023-04-05T10:00:26.413Z,52.54
2023-04-05T10:02:55.184Z,54.13
2023-04-05T10:05:25.492Z,54.08
2023-04-05T10:07:53.345Z,52.53
2023-04-05T10:10:23.180Z,51.94
2023-04-05T10:12:51.390Z,51.73
2023-04-05T10:15:19.385Z,51.61
2023-04-05T10:17:51.515Z,51.54
2023-04-05T10:20:19.947Z,53.10
2023-04-05T10:23:01.935Z,52.25
2023-04-05T10:25:38.270Z,52.17
2023-04-05T10:28:06.932Z,52.44
2023-04-05T10:30:37.695Z,51.49
2023-04-05T10:33:15.603Z,51.98
2023-04-05T10:35:51.583Z,52.21
2023-04-05T10:38:24.213Z,52.20
2023-04-05T10:40:55.487Z,52.72
2023-04-05T10:43:26.169Z,52.09
2023-04-05T10:45:55.646Z,52.95
2023-04-05T10:48:38.168Z,52.57
2023-04-05T10:51:06.196Z,51.21
2023-04-05T10:53:35.241Z,50.68
2023-04-05T10:56:02.899Z,51.33
2023-04-05T10:58:31.271Z,50.82
2023-04-05T11:00:59.316Z,50.06
2023-04-05T11:03:47.394Z,49.53
2023-04-05T11:06:23.779Z,48.86
2023-04-05T11:08:55.280Z,48.86
2023-04-05T11:11:24.223Z,48.54
2023-04-05T11:13:53.863Z,48.71
2023-04-05T11:16:22.218Z,49.99
2023-04-05T11:18:53.430Z,49.34
2023-04-05T11:21:22.908Z,48.17
2023-04-05T11:24:07.014Z,49.71
2023-04-05T11:26:54.281Z,49.73
2023-04-05T11:29:50.642Z,49.42
2023-04-05T11:32:18.544Z,48.75
2023-04-05T11:34:59.803Z,48.40
2023-04-05T11:37:55.365Z,48.09
2023-04-05T11:40:28.314Z,47.21
2023-04-05T11:43:13.704Z,47.53
2023-04-05T11:45:43.379Z,47.17
2023-04-05T11:48:13.143Z,46.94
2023-04-05T11:50:43.110Z,46.39
2023-04-05T11:53:14.809Z,46.68
2023-04-05T11:55:43.797Z,45.94
2023-04-05T11:58:15.999Z,46.16
2023-04-05T12:00:44.342Z,46.33
2023-04-05T12:03:13.217Z,46.73
2023-04-05T12:05:50.700Z,47.02
2023-04-05T12:08:18.742Z,46.53
2023-04-05T12:10:46.779Z,45.87
2023-04-05T12:13:14.533Z,45.39
2023-04-05T12:15:42.437Z,44.59
2023-04-05T12:18:19.135Z,45.14
2023-04-05T12:20:47.108Z,44.61
2023-04-05T12:23:17.492Z,44.59
2023-04-05T12:25:47.653Z,45.05
2023-04-05T12:28:15.365Z,43.95
2023-04-05T12:30:52.960Z,44.60
2023-04-05T12:33:30.391Z,44.39
2023-04-05T12:35:58.374Z,44.90
2023-04-05T12:38:30.880Z,45.67
2023-04-05T12:41:00.978Z,43.84
2023-04-05T12:43:39.375Z,43.93
2023-04-05T12:46:10.334Z,44.68
2023-04-05T12:48:38.547Z,43.22
2023-04-05T12:51:15.510Z,44.24
2023-04-05T12:53:48.131Z,42.42
2023-04-05T12:56:16.681Z,42.96
2023-04-05T12:58:44.337Z,44.12
2023-04-05T13:01:12.791Z,42.31
2023-04-05T13:03:40.577Z,43.09
2023-04-05T13:06:10.172Z,42.64
2023-04-05T13:08:37.987Z,42.30
2023-04-05T13:11:07.159Z,41.92
2023-04-05T13:13:35.223Z,42.97
2023-04-05T13:16:03.008Z,42.37
2023-04-05T13:18:30.746Z,42.63
2023-04-05T13:20:58.372Z,42.75
2023-04-05T13:23:25.924Z,42.38
2023-04-05T13:25:53.595Z,43.13
2023-04-05T13:28:22.524Z,43.08
2023-04-05T13:30:51.262Z,41.88
2023-04-05T13:33:20.241Z,43.30
2023-04-05T13:35:48.147Z,42.83
2023-04-05T13:38:15.971Z,43.01
2023-04-05T13:40:43.562Z,42.55
2023-04-05T13:43:11.151Z,43.69
2023-04-05T13:45:40.589Z,42.56
2023-04-05T13:48:08.485Z,42.84
2023-04-05T13:50:36.306Z,42.19
2023-04-05T13:53:03.830Z,42.99
2023-04-05T13:55:31.587Z,42.98
2023-04-05T13:57:59.170Z,42.64
2023-04-05T14:00:26.807Z,42.77
2023-04-05T14:02:56.046Z,42.31
2023-04-05T14:05:23.803Z,42.69
2023-04-05T14:07:51.643Z,42.72
2023-04-05T14:10:21.506Z,42.99
2023-04-05T14:12:49.316Z,42.90
2023-04-05T14:15:17.132Z,42.93
2023-04-05T14:17:45.200Z,43.00
2023-04-05T14:20:14.555Z,42.03
2023-04-05T14:22:42.342Z,43.01
2023-04-05T14:25:10.744Z,44.58
2023-04-05T14:27:42.206Z,43.16
2023-04-05T14:30:11.129Z,44.17
2023-04-05T14:32:39.078Z,44.22
2023-04-05T14:35:07.616Z,45.12
2023-04-05T14:37:36.636Z,43.93
2023-04-05T14:40:04.793Z,43.45
2023-04-05T14:42:47.842Z,44.60
2023-04-05T14:45:16.700Z,43.92
2023-04-05T14:47:44.478Z,44.08
2023-04-05T14:50:12.452Z,43.99
2023-04-05T14:52:41.605Z,43.60
2023-04-05T14:55:12.378Z,44.13
2023-04-05T14:57:40.225Z,43.89
2023-04-05T15:00:09.489Z,44.58
2023-04-05T15:02:38.162Z,45.01
2023-04-05T15:05:06.830Z,44.74
2023-04-05T15:07:34.770Z,45.64
2023-04-05T15:10:04.375Z,45.53
2023-04-05T15:12:33.025Z,44.29
2023-04-05T15:15:02.115Z,44.96
2023-04-05T15:17:29.971Z,44.01
2023-04-05T15:19:57.680Z,44.37
2023-04-05T15:22:25.419Z,44.06
2023-04-05T15:24:53.137Z,44.80
2023-04-05T15:27:22.403Z,45.34
2023-04-05T15:29:50.464Z,45.36
2023-04-05T15:32:18.313Z,45.06
2023-04-05T15:34:46.117Z,45.29
2023-04-05T15:37:13.987Z,44.50
2023-04-05T15:39:41.752Z,44.40
2023-04-05T15:42:09.497Z,45.10
2023-04-05T15:44:38.928Z,45.42
2023-04-05T15:47:06.664Z,44.61
2023-04-05T15:49:34.393Z,44.70
2023-04-05T15:52:02.076Z,45.26
2023-04-05T15:54:29.806Z,44.95
2023-04-05T15:56:58.318Z,44.77
2023-04-05T15:59:26.144Z,45.51
2023-04-05T16:01:55.389Z,45.49
2023-04-05T16:04:23.264Z,44.83
2023-04-05T16:06:51.073Z,45.67
2023-04-05T16:09:18.784Z,45.71
2023-04-05T16:11:46.604Z,45.59
2023-04-05T16:14:14.451Z,45.57
2023-04-05T16:16:52.879Z,44.73
2023-04-05T16:19:26.228Z,45.06
2023-04-05T16:21:53.987Z,45.07
2023-04-05T16:24:21.698Z,45.32
2023-04-05T16:26:49.481Z,45.12
2023-04-05T16:29:17.206Z,45.98
2023-04-05T16:31:47.281Z,46.40
2023-04-05T16:34:15.531Z,45.96
2023-04-05T16:36:44.649Z,45.44
2023-04-05T16:39:12.638Z,45.96
2023-04-05T16:41:40.516Z,45.59
2023-04-05T16:44:08.627Z,45.00
2023-04-05T16:46:36.427Z,44.62
2023-04-05T16:49:04.381Z,45.27
2023-04-05T16:51:32.491Z,45.30
2023-04-05T16:54:01.674Z,45.39
2023-04-05T16:56:29.489Z,46.12
2023-04-05T16:58:57.457Z,46.01
2023-04-05T17:01:26.507Z,45.83
2023-04-05T17:03:54.274Z,45.88
2023-04-05T17:06:22.204Z,46.23
2023-04-05T17:08:49.917Z,46.31
2023-04-05T17:11:18.964Z,46.44
2023-04-05T17:13:47.303Z,46.75
2023-04-05T17:16:16.089Z,46.93
2023-04-05T17:18:43.859Z,46.87
2023-04-05T17:21:12.436Z,47.15
2023-04-05T17:23:40.684Z,47.31
2023-04-05T17:26:08.392Z,48.02
2023-04-05T17:28:37.918Z,48.23
2023-04-05T17:31:06.783Z,48.73
2023-04-05T17:33:35.011Z,49.64
2023-04-05T17:36:04.144Z,49.23
2023-04-05T17:38:31.916Z,49.29
2023-04-05T17:40:59.549Z,50.16
2023-04-05T17:43:27.434Z,50.70
2023-04-05T17:45:57.073Z,50.50
2023-04-05T17:48:27.272Z,50.60
2023-04-05T17:50:55.116Z,50.82
2023-04-05T17:53:22.878Z,50.11
2023-04-05T17:55:50.759Z,50.27
2023-04-05T17:58:19.202Z,49.86
2023-04-05T18:00:46.854Z,50.59
2023-04-05T18:03:17.901Z,50.87
2023-04-05T18:05:51.239Z,50.40
2023-04-05T18:08:19.113Z,50.24
2023-04-05T18:10:46.797Z,49.87
2023-04-05T18:13:15.720Z,50.55
2023-04-05T18:15:43.416Z,51.41
2023-04-05T18:18:11.863Z,52.26
2023-04-05T18:20:41.427Z,52.19
2023-04-05T18:23:09.252Z,52.23
2023-04-05T18:25:36.977Z,52.06
2023-04-05T18:28:15.515Z,52.07
2023-04-05T18:30:50.581Z,52.23
2023-04-05T18:33:18.623Z,52.16
2023-04-05T18:35:51.531Z,52.41
2023-04-05T18:38:19.349Z,52.26
2023-04-05T18:40:47.083Z,52.44
2023-04-05T18:43:15.127Z,52.50
2023-04-05T18:45:42.872Z,52.61
2023-04-05T18:48:12.000Z,52.72
2023-04-05T18:50:40.118Z,52.98
2023-04-05T18:53:09.553Z,52.75
2023-04-05T18:55:37.918Z,52.77
2023-04-05T18:58:05.984Z,52.52
2023-04-05T19:00:34.897Z,52.48
2023-04-05T19:03:02.820Z,52.51
2023-04-05T19:05:30.572Z,52.48
2023-04-05T19:07:58.396Z,52.41
2023-04-05T19:10:27.553Z,52.98
2023-04-05T19:12:55.534Z,52.70
2023-04-05T19:15:23.179Z,52.77
2023-04-05T19:17:51.157Z,52.94
2023-04-05T19:20:19.059Z,53.28
2023-04-05T19:22:46.727Z,53.37
2023-04-05T19:25:14.943Z,53.17
2023-04-05T19:27:44.020Z,53.81
2023-04-05T19:30:12.413Z,54.19
2023-04-05T19:32:40.308Z,54.40
2023-04-05T19:35:09.845Z,54.89
2023-04-05T19:37:37.527Z,55.05
2023-04-05T19:40:06.299Z,55.59
2023-04-05T19:42:34.061Z,55.55
2023-04-05T19:45:03.228Z,55.88
2023-04-05T19:47:31.378Z,56.62
2023-04-05T19:50:00.565Z,56.04
2023-04-05T19:52:40.823Z,55.25
2023-04-05T19:55:29.692Z,55.07
2023-04-05T19:57:58.088Z,55.29
2023-04-05T20:00:37.518Z,55.02
2023-04-05T20:03:18.944Z,54.97
2023-04-05T20:05:59.870Z,55.09
2023-04-05T20:08:28.205Z,55.15
2023-04-05T20:10:56.787Z,55.26
2023-04-05T20:13:24.543Z,55.23
2023-04-05T20:15:54.131Z,55.49
2023-04-05T20:18:23.691Z,55.26
2023-04-05T20:20:53.139Z,54.95
2023-04-05T20:23:22.695Z,54.35
2023-04-05T20:25:51.599Z,54.69
2023-04-05T20:28:34.737Z,55.01
2023-04-05T20:31:03.957Z,55.81
2023-04-05T20:33:46.518Z,55.55
2023-04-05T20:36:15.435Z,55.68
2023-04-05T20:38:44.834Z,55.34
2023-04-05T20:41:13.130Z,55.03
2023-04-05T20:43:41.759Z,55.50
2023-04-05T20:46:11.463Z,56.92
2023-04-05T20:48:39.400Z,56.90
2023-04-05T20:51:08.217Z,57.00
2023-04-05T20:53:37.214Z,56.76
2023-04-05T20:56:05.944Z,55.46
2023-04-05T20:58:33.754Z,55.04
2023-04-05T21:01:03.447Z,55.34
2023-04-05T21:03:33.553Z,55.64
2023-04-05T21:06:02.060Z,55.93
2023-04-05T21:08:30.717Z,56.16
2023-04-05T21:10:59.061Z,55.86
2023-04-05T21:13:26.989Z,56.79
2023-04-05T21:15:55.485Z,56.93
2023-04-05T21:18:23.722Z,57.58
2023-04-05T21:20:54.176Z,57.72
2023-04-05T21:23:23.687Z,58.00
2023-04-05T21:25:55.128Z,58.60
2023-04-05T21:28:24.992Z,59.21
2023-04-05T21:30:53.622Z,59.62
2023-04-05T21:33:21.387Z,59.60
2023-04-05T21:35:49.213Z,59.70
2023-04-05T21:38:18.489Z,59.67
2023-04-05T21:40:46.265Z,59.73
2023-04-05T21:43:14.093Z,59.90
2023-04-05T21:45:41.741Z,59.49
2023-04-05T21:48:09.742Z,59.33
2023-04-05T21:50:37.590Z,58.83
2023-04-05T21:53:07.324Z,59.61
2023-04-05T21:55:36.785Z,59.82
2023-04-05T21:58:04.649Z,60.23
2023-04-05T22:00:32.370Z,60.24
2023-04-05T22:03:00.176Z,60.16
2023-04-05T22:05:37.916Z,60.15
2023-04-05T22:08:07.412Z,60.66
2023-04-05T22:10:37.507Z,60.21
2023-04-05T22:13:05.359Z,59.92
2023-04-05T22:15:33.026Z,59.18
2023-04-05T22:18:00.905Z,58.95
2023-04-05T22:20:28.767Z,58.57
2023-04-05T22:22:56.514Z,57.94
2023-04-05T22:25:26.321Z,57.76
2023-04-05T22:27:59.640Z,57.89
2023-04-05T22:30:28.239Z,57.96
2023-04-05T22:32:56.597Z,58.16
2023-04-05T22:35:24.511Z,58.08
2023-04-05T22:37:52.265Z,58.67
2023-04-05T22:40:19.956Z,59.08
2023-04-05T22:42:47.590Z,59.11
2023-04-05T22:45:16.829Z,59.42
2023-04-05T22:47:44.564Z,60.67
2023-04-05T22:50:12.469Z,60.44
2023-04-05T22:52:40.282Z,60.47
2023-04-05T22:55:09.450Z,60.57
2023-04-05T22:57:37.226Z,61.25
2023-04-05T23:00:05.584Z,62.35
2023-04-05T23:02:34.630Z,62.60
2023-04-05T23:05:02.447Z,62.50
2023-04-05T23:07:30.182Z,62.63
2023-04-05T23:09:57.857Z,62.17
2023-04-05T23:12:25.625Z,61.88
2023-04-05T23:14:53.316Z,62.07
2023-04-05T23:17:21.449Z,61.39
2023-04-05T23:19:50.462Z,60.91
2023-04-05T23:22:18.184Z,59.98
2023-04-05T23:24:45.879Z,61.96
2023-04-05T23:27:13.562Z,64.21
2023-04-05T23:29:41.332Z,64.20
2023-04-05T23:32:12.608Z,65.28
2023-04-05T23:34:40.461Z,64.91
2023-04-05T23:37:09.516Z,64.05
2023-04-05T23:39:37.266Z,63.67
2023-04-05T23:42:05.388Z,63.31
2023-04-05T23:44:33.182Z,63.16
2023-04-05T23:47:01.162Z,63.06
2023-04-05T23:49:28.981Z,62.17
2023-04-05T23:51:56.615Z,62.60
2023-04-05T23:54:25.944Z,63.59
2023-04-05T23:56:53.856Z,64.06
2023-04-05T23:59:21.616Z,63.84
